Time;durP1;ratioP1;P1;durP2;ratioP2;P2;SDS_P1;SDS_P2;PMS_P1;PMS_P2;Temp;Humidity;BMP_temperature;BMP_pressure;BME280_temperature;BME280_humidity;BME280_pressure;Samples;Min_cycle;Max_cycle;Signal;HPM_P1;HPM_P2
2022/04/07 00:01:48;;;;;;;15.87;9.73;;;14.30;58.90;;;;;;4987046;28;20202;-77
2022/04/07 00:04:18;;;;;;;21.50;9.57;;;14.30;58.90;;;;;;4985056;28;20201;-76
2022/04/07 00:06:50;;;;;;;20.03;10.03;;;14.30;59.30;;;;;;4987275;28;20244;-77
2022/04/07 00:09:18;;;;;;;19.80;9.40;;;14.20;59.30;;;;;;4986992;28;20200;-77
2022/04/07 00:11:49;;;;;;;20.10;8.27;;;14.20;59.20;;;;;;4985773;28;20197;-77
2022/04/07 00:14:17;;;;;;;19.93;8.60;;;14.20;59.10;;;;;;4987541;28;20200;-76
2022/04/07 00:16:46;;;;;;;18.67;9.40;;;14.20;59.20;;;;;;4987217;28;20205;-76
2022/04/07 00:19:14;;;;;;;15.67;9.37;;;14.20;59.20;;;;;;4986656;28;20220;-76
2022/04/07 00:21:46;;;;;;;17.77;8.77;;;14.10;59.30;;;;;;4986480;28;20240;-77
2022/04/07 00:24:15;;;;;;;14.87;8.43;;;14.10;59.80;;;;;;4986045;28;20274;-77
2022/04/07 00:26:44;;;;;;;17.70;8.50;;;14.10;60.30;;;;;;4985782;28;20200;-76
2022/04/07 00:29:12;;;;;;;14.97;8.20;;;14.00;59.80;;;;;;4986093;28;20207;-77
2022/04/07 00:31:40;;;;;;;16.17;8.17;;;14.10;59.70;;;;;;4985589;28;20197;-77
2022/04/07 00:34:11;;;;;;;13.20;7.27;;;14.00;59.60;;;;;;4984853;28;20201;-76
2022/04/07 00:36:40;;;;;;;14.60;7.67;;;14.00;59.40;;;;;;4986419;28;20201;-76
2022/04/07 00:39:10;;;;;;;14.27;7.87;;;14.00;59.40;;;;;;4987292;28;20734;-77
2022/04/07 00:41:39;;;;;;;12.47;7.00;;;14.00;59.40;;;;;;4985911;28;20860;-77
2022/04/07 00:44:08;;;;;;;11.60;6.83;;;14.00;59.50;;;;;;4987387;28;20921;-77
2022/04/07 00:46:38;;;;;;;12.37;7.43;;;13.90;59.50;;;;;;4986709;28;20255;-77
2022/04/07 00:49:06;;;;;;;17.03;6.87;;;13.90;59.60;;;;;;4986660;28;20208;-76
2022/04/07 00:51:36;;;;;;;13.53;6.43;;;13.90;59.60;;;;;;4985023;28;20864;-77
2022/04/07 00:54:04;;;;;;;9.20;5.63;;;13.90;59.80;;;;;;4983822;28;20227;-76
2022/04/07 00:56:36;;;;;;;9.83;5.80;;;13.90;59.60;;;;;;4984625;28;20208;-76
2022/04/07 00:59:06;;;;;;;12.57;6.37;;;13.80;59.50;;;;;;4986026;28;21559;-76
2022/04/07 01:01:35;;;;;;;13.47;6.07;;;13.80;59.80;;;;;;4986513;28;20236;-76
2022/04/07 01:04:03;;;;;;;9.57;5.60;;;13.80;60.20;;;;;;4985192;28;20268;-77
2022/04/07 01:06:32;;;;;;;9.70;6.00;;;13.80;60.10;;;;;;4986113;28;20196;-76
2022/04/07 01:09:01;;;;;;;10.30;6.03;;;13.70;60.10;;;;;;4984956;28;20192;-76
2022/04/07 01:11:32;;;;;;;11.03;6.27;;;13.70;60.20;;;;;;4987399;28;20688;-76
2022/04/07 01:14:02;;;;;;;11.90;5.43;;;13.70;60.10;;;;;;4986261;28;20196;-77
2022/04/07 01:16:31;;;;;;;12.00;6.53;;;13.70;60.20;;;;;;4984381;28;20204;-77
2022/04/07 01:19:00;;;;;;;10.33;6.20;;;13.70;60.30;;;;;;4982288;28;20209;-77
2022/04/07 01:21:30;;;;;;;12.83;7.13;;;13.60;60.40;;;;;;4985069;28;20229;-77
2022/04/07 01:24:03;;;;;;;18.50;9.37;;;13.60;60.40;;;;;;4986147;28;20199;-76
2022/04/07 01:26:38;;;;;;;16.33;9.57;;;13.60;62.30;;;;;;4985000;28;20197;-77
2022/04/07 01:29:07;;;;;;;17.93;10.40;;;13.50;62.70;;;;;;4984098;28;20723;-77
2022/04/07 01:31:36;;;;;;;16.87;9.53;;;13.50;62.30;;;;;;4985433;28;20216;-77
2022/04/07 01:34:07;;;;;;;15.60;9.57;;;13.50;62.20;;;;;;4985263;28;20262;-76
2022/04/07 01:36:38;;;;;;;21.97;10.87;;;13.50;63.20;;;;;;4985679;28;20214;-77
2022/04/07 01:39:09;;;;;;;20.27;11.03;;;13.40;63.00;;;;;;4985255;28;20212;-76
2022/04/07 01:41:41;;;;;;;22.77;10.90;;;13.40;63.60;;;;;;4985827;28;20208;-75
2022/04/07 01:44:12;;;;;;;17.80;9.80;;;13.40;63.40;;;;;;4985005;28;20201;-76
2022/04/07 01:46:41;;;;;;;22.37;9.83;;;13.30;63.30;;;;;;4985441;28;20204;-75
2022/04/07 01:49:10;;;;;;;20.40;9.53;;;13.30;63.60;;;;;;4984504;28;20227;-77
2022/04/07 01:51:39;;;;;;;17.40;9.23;;;13.30;63.80;;;;;;4984241;28;20205;-76
2022/04/07 01:54:11;;;;;;;16.00;9.07;;;13.20;63.80;;;;;;4984725;28;20208;-77
2022/04/07 01:56:44;;;;;;;16.17;9.23;;;13.20;64.00;;;;;;4985385;28;20224;-76
2022/04/07 01:59:14;;;;;;;20.27;9.27;;;13.20;64.30;;;;;;4985264;28;20212;-76
2022/04/07 02:01:42;;;;;;;14.47;8.47;;;13.20;64.60;;;;;;4987334;28;20204;-76
2022/04/07 02:04:11;;;;;;;19.13;8.53;;;13.10;64.40;;;;;;4985109;28;20262;-75
2022/04/07 02:06:40;;;;;;;13.47;7.83;;;13.10;64.50;;;;;;4985521;28;20201;-76
2022/04/07 02:09:09;;;;;;;17.43;8.87;;;13.10;64.30;;;;;;4984408;28;20192;-75
2022/04/07 02:11:37;;;;;;;12.53;7.20;;;13.10;64.20;;;;;;4984099;28;20225;-75
2022/04/07 02:14:07;;;;;;;15.00;7.80;;;13.10;64.00;;;;;;4984445;28;20205;-76
2022/04/07 02:16:35;;;;;;;11.53;7.33;;;13.00;63.80;;;;;;4984066;28;20248;-76
2022/04/07 02:19:04;;;;;;;14.33;7.47;;;13.00;63.80;;;;;;4984574;28;20210;-76
2022/04/07 02:21:32;;;;;;;12.93;8.37;;;13.00;64.40;;;;;;4984938;28;20240;-75
2022/04/07 02:24:00;;;;;;;12.30;7.27;;;12.90;64.80;;;;;;4983733;28;20206;-75
2022/04/07 02:26:30;;;;;;;10.70;6.43;;;12.90;65.40;;;;;;4982343;28;20714;-77
2022/04/07 02:29:00;;;;;;;10.80;6.17;;;12.80;65.60;;;;;;4983852;28;20197;-76
2022/04/07 02:31:29;;;;;;;11.03;6.67;;;12.80;65.60;;;;;;4983802;28;20197;-76
2022/04/07 02:33:58;;;;;;;11.40;6.17;;;12.80;65.20;;;;;;4984159;28;20200;-75
2022/04/07 02:36:26;;;;;;;12.27;6.27;;;12.80;65.40;;;;;;4984024;28;20610;-75
2022/04/07 02:38:55;;;;;;;10.20;6.57;;;12.70;65.40;;;;;;4982226;28;20204;-77
2022/04/07 02:41:24;;;;;;;10.07;6.40;;;12.70;65.70;;;;;;4984291;28;20200;-76
2022/04/07 02:43:52;;;;;;;11.47;7.90;;;12.70;66.10;;;;;;4983998;28;20215;-78
2022/04/07 02:46:21;;;;;;;15.07;7.57;;;12.60;66.50;;;;;;4985258;28;20205;-77
2022/04/07 02:48:51;;;;;;;16.00;7.50;;;12.60;66.20;;;;;;4983798;28;20288;-75
2022/04/07 02:51:19;;;;;;;14.60;7.63;;;12.60;66.40;;;;;;4983595;28;20189;-75
2022/04/07 02:53:47;;;;;;;16.90;7.57;;;12.50;66.10;;;;;;4983167;28;20201;-75
2022/04/07 02:56:16;;;;;;;18.07;8.03;;;12.50;66.30;;;;;;4983277;28;20207;-75
2022/04/07 02:58:44;;;;;;;16.40;8.27;;;12.40;66.40;;;;;;4982802;28;20220;-76
2022/04/07 03:01:14;;;;;;;16.50;8.20;;;12.40;66.40;;;;;;4983755;28;20219;-75
2022/04/07 03:03:42;;;;;;;15.13;8.00;;;12.30;66.40;;;;;;4984490;28;20755;-76
2022/04/07 03:06:12;;;;;;;16.13;8.43;;;12.30;66.50;;;;;;4983265;28;21065;-76
2022/04/07 03:08:41;;;;;;;18.40;8.07;;;12.20;66.80;;;;;;4985125;28;20385;-75
2022/04/07 03:11:10;;;;;;;13.97;8.73;;;12.20;66.70;;;;;;4985033;28;20204;-76
2022/04/07 03:13:38;;;;;;;15.93;8.43;;;12.20;66.90;;;;;;4984087;28;20292;-75
2022/04/07 03:16:10;;;;;;;11.50;7.60;;;12.10;66.70;;;;;;4982640;28;20279;-76
2022/04/07 03:18:41;;;;;;;13.13;7.60;;;12.10;66.90;;;;;;4983018;28;20193;-76
2022/04/07 03:21:09;;;;;;;15.33;8.97;;;12.10;66.70;;;;;;4982796;28;20225;-75
2022/04/07 03:23:39;;;;;;;15.90;7.13;;;12.00;67.80;;;;;;4982354;28;20207;-75
2022/04/07 03:26:09;;;;;;;13.30;7.37;;;12.00;68.50;;;;;;4982286;28;20193;-77
2022/04/07 03:28:38;;;;;;;15.80;7.33;;;11.90;68.30;;;;;;4983216;28;20204;-76
2022/04/07 03:31:06;;;;;;;14.53;7.43;;;11.90;68.60;;;;;;4983999;28;20204;-77
2022/04/07 03:33:35;;;;;;;10.93;6.73;;;11.80;69.10;;;;;;4984261;28;20808;-80
2022/04/07 03:36:04;;;;;;;13.97;7.13;;;11.80;69.30;;;;;;4982831;28;20670;-79
2022/04/07 03:38:33;;;;;;;10.93;6.73;;;11.70;70.00;;;;;;4982156;28;20417;-80
2022/04/07 03:41:03;;;;;;;11.53;6.70;;;11.70;69.80;;;;;;4984046;28;20212;-78
2022/04/07 03:43:31;;;;;;;11.30;6.97;;;11.70;70.00;;;;;;4983692;28;20221;-78
2022/04/07 03:45:59;;;;;;;15.37;6.70;;;11.70;69.90;;;;;;4982764;28;21676;-79
2022/04/07 03:48:28;;;;;;;11.27;6.70;;;11.60;69.80;;;;;;4983091;28;20215;-79
2022/04/07 03:50:56;;;;;;;10.50;6.47;;;11.60;69.70;;;;;;4984581;28;20659;-78
2022/04/07 03:53:24;;;;;;;14.63;6.93;;;11.60;69.90;;;;;;4982475;28;20199;-78
2022/04/07 03:55:53;;;;;;;11.30;6.57;;;11.60;69.70;;;;;;4982603;28;20197;-78
2022/04/07 03:58:23;;;;;;;12.63;6.57;;;11.60;69.60;;;;;;4982321;28;20753;-77
2022/04/07 04:00:52;;;;;;;9.17;6.70;;;11.60;69.50;;;;;;4988329;28;20697;-76
2022/04/07 04:03:20;;;;;;;13.03;7.10;;;11.60;69.40;;;;;;4987782;28;20579;-75
2022/04/07 04:05:49;;;;;;;11.57;7.20;;;11.60;69.20;;;;;;4985949;28;20196;-76
2022/04/07 04:08:23;;;;;;;12.23;7.53;;;11.60;69.30;;;;;;4987329;28;20224;-74
2022/04/07 04:10:51;;;;;;;13.87;6.70;;;11.60;69.50;;;;;;4989600;28;20333;-76
2022/04/07 04:13:26;;;;;;;10.37;6.90;;;11.70;69.40;;;;;;4987142;28;20742;-80
2022/04/07 04:15:55;;;;;;;9.57;6.90;;;11.70;69.50;;;;;;4987684;28;20189;-78
2022/04/07 04:18:23;;;;;;;18.53;8.20;;;11.70;69.90;;;;;;4989219;28;20196;-76
2022/04/07 04:20:52;;;;;;;10.43;6.50;;;11.70;69.50;;;;;;4986439;28;20244;-76
2022/04/07 04:23:20;;;;;;;13.17;6.30;;;11.70;69.70;;;;;;4984621;28;20200;-75
2022/04/07 04:25:53;;;;;;;10.17;6.00;;;11.70;69.50;;;;;;4986496;28;20207;-75
2022/04/07 04:28:22;;;;;;;13.40;6.57;;;11.80;69.40;;;;;;4987464;28;20235;-75
2022/04/07 04:30:51;;;;;;;10.03;6.07;;;11.80;69.80;;;;;;4985938;28;20197;-78
2022/04/07 04:33:20;;;;;;;11.23;6.13;;;11.90;68.90;;;;;;4984521;28;20287;-75
2022/04/07 04:35:50;;;;;;;10.00;6.90;;;11.90;68.80;;;;;;4984709;28;20211;-77
2022/04/07 04:38:19;;;;;;;11.10;6.83;;;11.90;68.60;;;;;;4986700;28;20903;-75
2022/04/07 04:40:47;;;;;;;12.30;6.63;;;11.90;68.30;;;;;;4986865;28;20229;-76
2022/04/07 04:43:15;;;;;;;10.23;6.50;;;12.00;68.30;;;;;;4985578;28;20651;-77
2022/04/07 04:45:44;;;;;;;10.97;6.30;;;12.00;68.10;;;;;;4986378;28;20208;-76
2022/04/07 04:48:14;;;;;;;11.17;6.83;;;12.10;68.00;;;;;;4986259;28;20205;-74
2022/04/07 04:50:42;;;;;;;14.13;7.10;;;12.10;68.00;;;;;;4986216;28;20208;-76
2022/04/07 04:53:16;;;;;;;12.73;6.40;;;12.10;67.90;;;;;;4943830;28;20224;-76
2022/04/07 04:55:54;;;;;;;11.17;6.13;;;12.20;67.70;;;;;;4983509;28;20197;-77
2022/04/07 04:58:22;;;;;;;13.83;6.53;;;12.20;67.70;;;;;;4985426;28;20203;-77
2022/04/07 05:00:51;;;;;;;9.80;6.33;;;12.20;67.60;;;;;;4986401;28;20224;-78
2022/04/07 05:03:21;;;;;;;10.60;6.60;;;12.20;67.40;;;;;;4984750;28;20714;-75
2022/04/07 05:05:49;;;;;;;12.97;7.13;;;12.30;67.40;;;;;;4987484;28;20204;-75
2022/04/07 05:08:19;;;;;;;11.93;6.43;;;12.40;67.20;;;;;;4984941;28;20212;-75
2022/04/07 05:10:48;;;;;;;9.70;6.70;;;12.40;67.00;;;;;;4985339;28;20193;-76
2022/04/07 05:13:16;;;;;;;13.27;6.23;;;12.40;66.80;;;;;;4986806;28;20761;-75
2022/04/07 05:15:44;;;;;;;14.37;6.77;;;12.50;66.60;;;;;;4985333;28;20606;-75
2022/04/07 05:18:13;;;;;;;10.50;6.33;;;12.50;66.30;;;;;;4987331;28;20204;-76
2022/04/07 05:20:45;;;;;;;12.53;6.57;;;12.60;66.30;;;;;;4988197;28;20258;-76
2022/04/07 05:23:13;;;;;;;10.40;6.67;;;12.70;66.30;;;;;;5004435;28;20192;-76
2022/04/07 05:25:41;;;;;;;12.97;6.63;;;12.80;66.10;;;;;;5005014;28;20203;-76
2022/04/07 05:28:10;;;;;;;11.93;6.10;;;12.80;66.00;;;;;;5006092;28;20204;-76
2022/04/07 05:30:38;;;;;;;11.00;6.17;;;12.90;65.90;;;;;;5005553;28;20200;-77
2022/04/07 05:33:07;;;;;;;12.20;6.27;;;13.00;65.80;;;;;;5004022;28;20200;-75
2022/04/07 05:35:35;;;;;;;10.07;6.30;;;13.10;65.60;;;;;;5004459;28;20694;-76
2022/04/07 05:38:05;;;;;;;9.23;5.60;;;13.20;65.60;;;;;;5005344;28;20188;-77
2022/04/07 05:40:34;;;;;;;11.60;6.25;;;13.20;65.40;;;;;;5005074;28;20235;-76
2022/04/07 05:43:04;;;;;;;12.67;6.00;;;13.30;65.30;;;;;;5006313;28;20243;-78
2022/04/07 05:45:34;;;;;;;10.23;5.90;;;13.40;65.20;;;;;;5005321;28;20251;-76
2022/04/07 05:48:03;;;;;;;10.30;5.80;;;13.50;64.20;;;;;;5004223;28;20203;-77
2022/04/07 05:50:31;;;;;;;9.23;5.97;;;13.60;64.20;;;;;;5004799;28;20207;-77
2022/04/07 05:52:59;;;;;;;11.10;6.57;;;13.70;64.10;;;;;;5004616;28;20204;-77
2022/04/07 05:55:29;;;;;;;9.03;5.57;;;13.80;63.80;;;;;;5005738;28;20197;-77
2022/04/07 05:57:57;;;;;;;13.47;6.60;;;13.90;63.70;;;;;;5004645;28;20201;-76
2022/04/07 06:00:26;;;;;;;9.70;6.50;;;13.90;63.00;;;;;;5004718;28;20208;-78
2022/04/07 06:02:55;;;;;;;10.93;5.90;;;14.00;63.00;;;;;;5005616;28;20227;-77
2022/04/07 06:05:23;;;;;;;16.07;6.27;;;14.10;62.80;;;;;;5005182;28;20211;-77
2022/04/07 06:07:57;;;;;;;11.33;6.60;;;14.20;62.50;;;;;;5005645;28;20689;-76
2022/04/07 06:10:25;;;;;;;13.10;6.63;;;14.30;62.30;;;;;;5003757;28;20204;-76
2022/04/07 06:12:55;;;;;;;11.83;6.57;;;14.30;61.90;;;;;;5004922;28;20196;-76
2022/04/07 06:15:24;;;;;;;10.13;5.90;;;14.40;61.80;;;;;;5002620;28;20273;-75
2022/04/07 06:17:54;;;;;;;11.30;6.10;;;14.50;61.80;;;;;;5005408;28;20200;-76
2022/04/07 06:20:23;;;;;;;10.10;5.10;;;14.60;61.60;;;;;;5004412;28;20211;-77
2022/04/07 06:22:51;;;;;;;9.17;6.27;;;14.70;61.50;;;;;;5003431;28;20212;-75
2022/04/07 06:25:19;;;;;;;12.93;6.10;;;14.80;61.10;;;;;;5003196;28;20207;-75
2022/04/07 06:27:48;;;;;;;9.03;6.10;;;14.80;60.90;;;;;;5003839;28;20196;-75
2022/04/07 06:30:19;;;;;;;9.00;6.10;;;14.90;60.80;;;;;;5003250;28;20196;-77
2022/04/07 06:32:49;;;;;;;10.10;5.83;;;15.00;60.70;;;;;;5003546;28;20195;-75
2022/04/07 06:35:18;;;;;;;14.80;5.83;;;15.00;60.80;;;;;;5003367;28;20188;-75
2022/04/07 06:37:51;;;;;;;10.77;5.90;;;15.10;60.20;;;;;;5002954;28;20204;-76
2022/04/07 06:40:21;;;;;;;12.17;5.73;;;15.10;60.00;;;;;;5003835;28;20644;-76
2022/04/07 06:42:51;;;;;;;13.27;7.13;;;15.20;59.70;;;;;;5002948;28;20215;-76
2022/04/07 06:45:26;;;;;;;12.97;6.07;;;15.20;59.50;;;;;;5004932;28;20298;-76
2022/04/07 06:47:55;;;;;;;11.53;5.80;;;15.30;59.60;;;;;;5004693;28;20200;-75
2022/04/07 06:50:25;;;;;;;12.23;5.77;;;15.40;59.40;;;;;;5004161;28;20283;-76
2022/04/07 06:52:54;;;;;;;11.27;6.10;;;15.50;59.40;;;;;;5003044;28;20202;-75
2022/04/07 06:55:23;;;;;;;8.57;4.83;;;15.60;59.40;;;;;;5003606;28;20294;-76
2022/04/07 06:57:53;;;;;;;15.03;5.97;;;15.70;59.10;;;;;;5004029;28;20837;-76
2022/04/07 07:00:23;;;;;;;8.60;5.47;;;15.80;59.10;;;;;;5003169;28;20202;-76
2022/04/07 07:02:54;;;;;;;11.33;5.33;;;15.80;57.80;;;;;;5005517;28;20216;-77
2022/04/07 07:05:24;;;;;;;7.90;5.03;;;15.90;58.00;;;;;;5004276;28;20235;-75
2022/04/07 07:07:53;;;;;;;12.30;5.50;;;16.00;57.80;;;;;;5003366;28;20211;-75
2022/04/07 07:10:23;;;;;;;12.33;5.00;;;16.20;57.70;;;;;;5002173;28;20208;-76
2022/04/07 07:12:52;;;;;;;8.83;5.30;;;16.20;57.40;;;;;;5001515;28;20198;-76
2022/04/07 07:15:22;;;;;;;11.43;5.30;;;16.30;57.20;;;;;;5003378;28;20201;-76
2022/04/07 07:17:51;;;;;;;9.23;5.10;;;16.40;57.10;;;;;;5003875;28;20205;-75
2022/04/07 07:20:21;;;;;;;8.30;5.20;;;16.50;57.10;;;;;;5000609;28;20333;-75
2022/04/07 07:22:50;;;;;;;7.77;4.67;;;16.50;56.70;;;;;;5002509;28;20208;-75
2022/04/07 07:25:18;;;;;;;9.40;5.13;;;16.60;56.50;;;;;;5002880;28;20677;-74
2022/04/07 07:27:48;;;;;;;9.43;5.20;;;16.70;56.50;;;;;;5003829;28;20672;-75
2022/04/07 07:30:17;;;;;;;7.73;4.77;;;16.70;56.10;;;;;;5002898;28;20196;-75
2022/04/07 07:32:47;;;;;;;8.40;5.33;;;16.80;55.90;;;;;;5003583;28;20632;-74
2022/04/07 07:35:18;;;;;;;7.33;4.83;;;16.90;55.60;;;;;;5006602;28;20200;-74
2022/04/07 07:37:53;;;;;;;7.60;4.43;;;17.00;55.50;;;;;;5005961;28;20195;-75
2022/04/07 07:40:23;;;;;;;8.33;4.63;;;17.10;55.10;;;;;;5005582;28;20199;-75
2022/04/07 07:42:55;;;;;;;9.77;4.23;;;17.10;54.70;;;;;;5005724;28;20204;-75
2022/04/07 07:45:25;;;;;;;8.10;4.70;;;17.20;54.90;;;;;;5004728;28;20223;-77
2022/04/07 07:48:14;;;;;;;9.57;4.13;;;17.30;55.10;;;;;;5004825;28;20687;-76
2022/04/07 07:50:45;;;;;;;7.23;4.33;;;17.30;52.70;;;;;;5004467;28;20566;-75
2022/04/07 07:53:19;;;;;;;10.80;5.27;;;17.40;53.40;;;;;;5004649;28;20202;-75
2022/04/07 07:55:49;;;;;;;7.20;4.70;;;17.40;53.60;;;;;;5005920;28;20231;-75
2022/04/07 07:58:17;;;;;;;10.07;4.37;;;17.50;54.50;;;;;;5005440;28;20305;-75
2022/04/07 08:00:45;;;;;;;14.63;5.03;;;17.50;53.20;;;;;;5004949;28;20232;-76
2022/04/07 08:03:14;;;;;;;7.80;4.43;;;17.50;53.40;;;;;;5004067;28;20247;-75
2022/04/07 08:05:43;;;;;;;7.87;4.37;;;17.60;53.20;;;;;;5005147;28;20287;-74
2022/04/07 08:08:12;;;;;;;11.73;4.87;;;17.70;52.40;;;;;;5004792;28;20283;-75
2022/04/07 08:10:42;;;;;;;11.33;4.83;;;17.70;52.40;;;;;;5005457;28;20204;-75
2022/04/07 08:13:10;;;;;;;9.53;4.53;;;17.80;52.20;;;;;;5004690;28;20193;-74
2022/04/07 08:15:39;;;;;;;9.50;4.40;;;17.90;52.20;;;;;;5004612;28;20207;-74
2022/04/07 08:18:08;;;;;;;7.73;4.33;;;18.00;52.30;;;;;;5005146;28;20204;-76
2022/04/07 08:20:37;;;;;;;7.67;4.67;;;18.10;52.60;;;;;;5004433;28;20717;-75
2022/04/07 08:23:05;;;;;;;9.20;4.60;;;18.20;52.60;;;;;;5005429;28;20213;-76
2022/04/07 08:25:34;;;;;;;8.87;4.23;;;18.30;52.60;;;;;;5004426;28;20236;-75
2022/04/07 08:28:04;;;;;;;11.67;5.13;;;18.40;52.30;;;;;;5005408;28;20200;-75
2022/04/07 08:30:34;;;;;;;8.83;5.20;;;18.60;52.20;;;;;;5004320;28;20211;-75
2022/04/07 08:33:04;;;;;;;7.87;4.50;;;18.60;52.30;;;;;;5004777;28;20197;-76
2022/04/07 08:35:32;;;;;;;8.07;4.57;;;18.70;51.00;;;;;;5005517;28;20202;-76
2022/04/07 08:38:01;;;;;;;7.43;4.20;;;18.80;51.10;;;;;;5004932;28;20605;-77
2022/04/07 08:40:31;;;;;;;6.83;4.20;;;18.90;51.20;;;;;;5005515;28;20196;-75
2022/04/07 08:43:00;;;;;;;6.73;3.80;;;19.00;51.10;;;;;;5005293;28;20307;-76
2022/04/07 08:45:32;;;;;;;8.40;4.20;;;19.10;50.90;;;;;;5004488;28;20208;-75
2022/04/07 08:48:00;;;;;;;10.13;4.10;;;19.30;50.50;;;;;;5003895;28;20199;-75
2022/04/07 08:50:29;;;;;;;7.07;3.87;;;19.30;50.20;;;;;;5004923;28;20694;-75
2022/04/07 08:52:58;;;;;;;14.43;4.13;;;19.50;50.10;;;;;;5005160;28;20196;-75
2022/04/07 08:55:26;;;;;;;10.33;3.83;;;19.60;50.00;;;;;;5003974;28;20200;-76
2022/04/07 08:57:54;;;;;;;9.77;4.10;;;19.70;49.50;;;;;;5003862;28;20204;-75
2022/04/07 09:00:23;;;;;;;10.90;3.97;;;19.80;49.30;;;;;;5004379;28;20207;-76
2022/04/07 09:02:54;;;;;;;8.07;3.80;;;19.90;49.20;;;;;;5004072;28;20219;-75
2022/04/07 09:05:25;;;;;;;6.07;3.40;;;20.00;49.20;;;;;;5004841;28;20219;-75
2022/04/07 09:07:54;;;;;;;8.47;4.17;;;20.10;49.10;;;;;;5003799;28;20206;-75
2022/04/07 09:10:24;;;;;;;9.57;3.80;;;20.20;49.00;;;;;;5004368;28;20200;-74
2022/04/07 09:12:53;;;;;;;6.10;3.20;;;20.30;48.40;;;;;;5004221;28;20606;-76
2022/04/07 09:15:22;;;;;;;8.23;3.80;;;20.40;47.70;;;;;;5003655;28;20200;-75
2022/04/07 09:17:52;;;;;;;10.50;3.27;;;20.60;47.80;;;;;;5004462;28;20774;-75
2022/04/07 09:20:24;;;;;;;6.00;3.17;;;20.80;48.10;;;;;;5003735;28;20193;-75
2022/04/07 09:22:57;;;;;;;6.80;3.10;;;20.90;47.50;;;;;;5004277;28;20243;-75
2022/04/07 09:25:25;;;;;;;6.38;2.83;;;21.00;47.20;;;;;;5004593;28;20193;-75
2022/04/07 09:27:57;;;;;;;6.95;3.22;;;21.10;46.90;;;;;;5003973;28;20197;-75
2022/04/07 09:30:26;;;;;;;4.28;3.00;;;21.20;46.80;;;;;;5003737;28;20187;-76
2022/04/07 09:32:55;;;;;;;7.77;3.40;;;21.30;46.40;;;;;;5003601;28;20244;-75
2022/04/07 09:35:25;;;;;;;5.78;3.53;;;21.30;45.40;;;;;;5004159;28;20698;-75
2022/04/07 09:38:01;;;;;;;7.35;3.50;;;21.50;45.40;;;;;;5003745;28;20202;-75
2022/04/07 09:40:29;;;;;;;5.25;2.58;;;21.60;44.80;;;;;;5003958;28;20200;-76
2022/04/07 09:42:59;;;;;;;6.93;2.70;;;21.70;45.30;;;;;;5004085;28;20852;-77
2022/04/07 09:45:27;;;;;;;7.40;2.40;;;21.70;45.00;;;;;;5003287;28;20204;-76
2022/04/07 09:47:56;;;;;;;9.05;2.65;;;21.80;43.90;;;;;;5002581;28;20871;-76
2022/04/07 09:50:29;;;;;;;5.38;2.75;;;21.80;42.50;;;;;;5003375;28;20206;-76
2022/04/07 09:52:58;;;;;;;6.25;2.60;;;21.80;42.50;;;;;;5003719;28;20203;-76
2022/04/07 09:55:30;;;;;;;6.85;2.60;;;21.80;42.30;;;;;;5004108;28;20265;-76
2022/04/07 09:58:00;;;;;;;11.23;2.95;;;21.80;41.70;;;;;;5002499;28;20215;-76
2022/04/07 10:00:29;;;;;;;10.93;2.58;;;21.80;41.70;;;;;;5002992;28;20197;-77
2022/04/07 10:02:58;;;;;;;7.82;2.50;;;21.70;41.70;;;;;;5003642;28;20568;-76
2022/04/07 10:05:30;;;;;;;6.03;2.30;;;21.70;42.10;;;;;;5003738;28;20819;-76
2022/04/07 10:07:59;;;;;;;8.60;2.90;;;21.70;42.10;;;;;;5005273;28;20196;-78
2022/04/07 10:10:28;;;;;;;6.63;2.63;;;21.70;41.60;;;;;;5003849;28;20200;-77
2022/04/07 10:12:59;;;;;;;8.35;2.75;;;21.70;41.90;;;;;;5004621;28;20610;-76
2022/04/07 10:15:28;;;;;;;8.27;3.17;;;21.70;41.50;;;;;;5003236;28;20185;-77
2022/04/07 10:18:00;;;;;;;6.70;4.35;;;21.60;41.90;;;;;;5003415;28;20200;-76
2022/04/07 10:20:34;;;;;;;8.63;4.72;;;21.60;41.70;;;;;;5004111;28;20326;-77
2022/04/07 10:23:15;;;;;;;40.85;24.90;;;21.60;42.20;;;;;;5003934;28;20200;-78
2022/04/07 10:25:49;;;;;;;98.70;52.55;;;21.50;41.90;;;;;;5004501;28;20196;-77
2022/04/07 10:28:19;;;;;;;35.50;18.33;;;21.50;41.80;;;;;;5004094;28;20196;-77
2022/04/07 10:30:51;;;;;;;69.00;32.03;;;21.40;42.20;;;;;;5005487;28;20195;-77
2022/04/07 10:33:42;;;;;;;190.60;105.63;;;21.30;41.70;;;;;;5003471;28;20204;-77
2022/04/07 10:36:24;;;;;;;37.27;24.57;;;21.30;42.10;;;;;;5004012;28;20650;-78
2022/04/07 10:38:54;;;;;;;61.37;43.53;;;21.20;41.60;;;;;;5004939;28;20764;-77
2022/04/07 10:41:50;;;;;;;22.38;9.35;;;21.20;41.60;;;;;;5004580;28;20196;-76
2022/04/07 10:44:20;;;;;;;11.30;2.87;;;21.10;40.50;;;;;;5004051;28;20200;-76
2022/04/07 10:46:49;;;;;;;5.43;2.30;;;21.00;40.70;;;;;;5004272;28;20200;-77
2022/04/07 10:49:24;;;;;;;4.70;2.53;;;20.90;41.20;;;;;;5004125;28;21178;-76
2022/04/07 10:51:56;;;;;;;4.00;2.30;;;20.90;41.80;;;;;;5004045;28;20199;-75
2022/04/07 10:54:28;;;;;;;8.57;2.27;;;20.80;42.10;;;;;;5003543;28;20714;-75
2022/04/07 10:57:04;;;;;;;8.07;2.27;;;20.80;42.00;;;;;;5004217;28;20206;-75
2022/04/07 10:59:37;;;;;;;15.27;2.53;;;20.80;42.00;;;;;;5004320;28;20342;-77
2022/04/07 11:02:10;;;;;;;9.07;3.10;;;20.70;42.20;;;;;;5003497;28;20211;-75
2022/04/07 11:04:44;;;;;;;5.33;2.40;;;20.70;42.60;;;;;;5003671;28;20212;-75
2022/04/07 11:07:22;;;;;;;10.13;2.53;;;20.70;43.30;;;;;;5003978;28;20200;-76
2022/04/07 11:10:11;;;;;;;11.00;4.37;;;20.70;44.20;;;;;;5006063;28;20275;-77
2022/04/07 11:13:00;;;;;;;11.10;3.53;;;20.60;45.70;;;;;;5008858;28;20577;-76
2022/04/07 11:15:55;;;;;;;8.27;2.43;;;20.50;46.00;;;;;;5006268;28;20204;-76
2022/04/07 11:19:00;;;;;;;7.57;3.17;;;20.50;47.00;;;;;;5006686;28;20201;-78
2022/04/07 11:21:44;;;;;;;5.63;2.57;;;20.40;47.60;;;;;;5006588;28;20733;-76
2022/04/07 11:24:26;;;;;;;5.47;2.77;;;20.30;48.10;;;;;;5008167;28;20210;-76
2022/04/07 11:26:57;;;;;;;7.07;3.07;;;20.20;48.50;;;;;;5006212;28;20195;-76
2022/04/07 11:29:34;;;;;;;8.37;2.83;;;20.20;49.20;;;;;;5007128;28;20200;-75
2022/04/07 11:32:09;;;;;;;8.13;3.13;;;20.10;51.30;;;;;;5006061;28;20980;-76
2022/04/07 11:34:52;;;;;;;7.23;2.80;;;20.00;51.20;;;;;;5009006;28;20199;-76
2022/04/07 11:37:20;;;;;;;10.00;3.20;;;19.90;52.10;;;;;;5006630;28;20547;-76
2022/04/07 11:39:53;;;;;;;15.33;4.30;;;19.70;53.40;;;;;;5007144;28;20370;-75
2022/04/07 11:42:23;;;;;;;9.07;4.60;;;19.60;56.70;;;;;;5005720;28;20253;-76
2022/04/07 11:44:59;;;;;;;11.97;4.20;;;19.40;58.50;;;;;;5006571;28;20702;-75
2022/04/07 11:47:30;;;;;;;13.17;4.50;;;19.20;59.40;;;;;;5005357;28;20685;-75
2022/04/07 11:49:59;;;;;;;12.07;4.97;;;19.00;60.10;;;;;;5006364;28;20199;-76
2022/04/07 11:52:31;;;;;;;13.23;4.50;;;18.90;60.70;;;;;;5004901;28;20193;-77
2022/04/07 11:55:03;;;;;;;8.90;4.37;;;18.70;61.50;;;;;;5004948;28;20200;-77
2022/04/07 11:57:33;;;;;;;12.93;4.40;;;18.60;61.90;;;;;;5006710;28;20239;-76
2022/04/07 12:00:04;;;;;;;13.67;5.13;;;18.40;63.40;;;;;;5005864;28;20200;-77
2022/04/07 12:02:33;;;;;;;16.17;5.10;;;18.30;63.70;;;;;;5006364;28;20200;-77
2022/04/07 12:05:05;;;;;;;9.17;4.57;;;18.20;64.50;;;;;;5005094;28;20879;-77
2022/04/07 12:07:33;;;;;;;10.47;5.03;;;18.10;66.80;;;;;;5006244;28;20200;-78
2022/04/07 12:10:09;;;;;;;17.77;5.00;;;18.00;67.50;;;;;;5006603;28;20944;-78
2022/04/07 12:12:41;;;;;;;13.47;5.03;;;17.80;68.80;;;;;;5007684;28;20671;-75
2022/04/07 12:15:10;;;;;;;16.00;5.93;;;17.70;69.10;;;;;;5005524;28;20447;-76
2022/04/07 12:17:58;;;;;;;12.47;4.57;;;17.60;70.70;;;;;;5008580;28;20212;-78
2022/04/07 12:20:26;;;;;;;10.00;3.80;;;17.40;71.50;;;;;;5005106;28;20713;-81
2022/04/07 12:23:05;;;;;;;11.67;3.77;;;17.20;71.90;;;;;;5005875;28;20551;-86
2022/04/07 12:25:35;;;;;;;10.10;5.00;;;17.10;72.50;;;;;;5006339;28;20208;-78
2022/04/07 12:28:11;;;;;;;11.30;4.47;;;16.90;72.60;;;;;;5007265;28;20205;-78
2022/04/07 12:30:46;;;;;;;12.33;4.60;;;16.80;74.00;;;;;;5004832;28;20204;-77
2022/04/07 12:33:41;;;;;;;11.03;4.40;;;16.70;74.50;;;;;;5005318;28;20200;-78
2022/04/07 12:36:11;;;;;;;14.93;4.50;;;16.60;75.30;;;;;;5005478;28;20195;-78
2022/04/07 12:38:40;;;;;;;13.00;5.30;;;16.50;75.20;;;;;;5006221;28;20201;-77
2022/04/07 12:41:12;;;;;;;12.30;4.87;;;16.40;76.60;;;;;;5007999;28;20205;-78
2022/04/07 12:43:50;;;;;;;8.77;4.37;;;16.30;76.50;;;;;;5008401;28;20724;-81
2022/04/07 12:46:19;;;;;;;11.13;4.90;;;16.10;78.00;;;;;;5006392;28;20212;-78
2022/04/07 12:49:05;;;;;;;11.07;4.80;;;16.10;78.10;;;;;;5006509;28;20238;-79
2022/04/07 12:51:34;;;;;;;11.03;4.00;;;16.00;78.00;;;;;;5006053;28;20209;-78
2022/04/07 12:54:07;;;;;;;10.27;4.17;;;16.00;78.20;;;;;;5008417;28;20215;-79
2022/04/07 12:56:38;;;;;;;9.07;4.60;;;15.90;79.20;;;;;;5006127;28;20725;-78
2022/04/07 12:59:09;;;;;;;14.07;4.97;;;15.90;78.80;;;;;;5006454;28;20698;-78